Time;durP1;ratioP1;P1;durP2;ratioP2;P2;SDS_P1;SDS_P2;PMS_P1;PMS_P2;Temp;Humidity;BMP_temperature;BMP_pressure;BME280_temperature;BME280_humidity;BME280_pressure;Samples;Min_cycle;Max_cycle;Signal;HPM_P1;HPM_P2
2022/02/08 05:00:32;;;;;;;7.90;2.40;;;4.10;99.90;;;;;;5961704;23;20505;-68
2022/02/08 05:28:45;;;;;;;5.40;2.13;;;4.10;99.90;;;;;;4932892;29;20447;-69
2022/02/08 05:41:54;;;;;;;8.57;2.00;;;4.20;99.90;;;;;;4937364;29;20967;-67
2022/02/08 05:44:33;;;;;;;6.83;1.90;;;4.30;99.90;;;;;;4937372;29;20812;-68
2022/02/08 05:46:59;;;;;;;6.53;1.80;;;4.30;99.90;;;;;;4937442;29;20447;-68
2022/02/08 05:49:39;;;;;;;12.67;2.53;;;4.30;99.90;;;;;;4937196;29;20464;-67
2022/02/08 05:54:56;;;;;;;4.53;2.23;;;4.30;99.90;;;;;;4937213;29;20792;-68
2022/02/08 05:57:23;;;;;;;4.47;1.40;;;4.30;99.90;;;;;;4937053;29;20528;-68
2022/02/08 05:59:51;;;;;;;5.70;1.83;;;4.40;99.90;;;;;;4936706;29;20793;-68
2022/02/08 06:02:19;;;;;;;11.87;2.30;;;4.40;99.90;;;;;;4938735;29;20484;-68
2022/02/08 06:04:48;;;;;;;2.47;2.10;;;4.50;99.90;;;;;;4938983;29;20441;-68
2022/02/08 06:07:18;;;;;;;5.60;2.37;;;4.40;99.90;;;;;;4937513;29;20479;-67
2022/02/08 06:09:47;;;;;;;7.63;2.23;;;4.40;99.90;;;;;;4936648;29;20908;-68
2022/02/08 06:12:14;;;;;;;4.57;1.97;;;4.50;99.90;;;;;;4936754;29;20505;-68
2022/02/08 06:14:43;;;;;;;5.67;1.93;;;4.40;99.90;;;;;;4937346;29;20496;-68
2022/02/08 06:17:09;;;;;;;4.10;2.73;;;4.50;99.90;;;;;;4937398;29;20807;-69
2022/02/08 06:19:36;;;;;;;5.60;1.77;;;4.60;99.90;;;;;;4937155;29;20468;-68
2022/02/08 06:22:04;;;;;;;4.83;2.00;;;4.70;99.90;;;;;;4935501;29;20474;-69
2022/02/08 06:24:31;;;;;;;6.95;2.63;;;4.60;99.90;;;;;;4935973;29;20468;-69
2022/02/08 06:26:58;;;;;;;6.80;3.03;;;4.60;99.90;;;;;;4936794;29;20211;-69
2022/02/08 06:29:25;;;;;;;5.03;2.27;;;4.70;99.90;;;;;;4936462;29;20463;-68
2022/02/08 06:31:51;;;;;;;5.40;2.30;;;4.70;99.90;;;;;;4936790;29;20864;-69
2022/02/08 06:34:22;;;;;;;5.33;2.60;;;4.70;99.90;;;;;;4936480;29;20456;-68
2022/02/08 06:36:53;;;;;;;8.17;2.77;;;4.60;99.90;;;;;;4936751;29;20538;-68
2022/02/08 06:39:21;;;;;;;6.50;2.30;;;4.60;99.90;;;;;;4936747;29;20441;-69
2022/02/08 06:41:48;;;;;;;7.80;1.90;;;4.50;99.90;;;;;;4936599;29;20472;-68
2022/02/08 06:44:15;;;;;;;4.67;1.80;;;4.40;99.90;;;;;;4936653;29;20456;-68
2022/02/08 06:46:42;;;;;;;7.63;2.60;;;4.40;99.90;;;;;;4936590;29;20468;-69
2022/02/08 06:49:09;;;;;;;6.70;2.03;;;4.40;99.90;;;;;;4936523;29;20441;-69
2022/02/08 06:51:35;;;;;;;7.60;2.33;;;4.50;99.90;;;;;;4936574;29;20481;-68
2022/02/08 06:54:02;;;;;;;9.60;2.60;;;4.60;99.90;;;;;;4936523;29;20469;-67
2022/02/08 06:56:31;;;;;;;7.93;2.37;;;4.60;99.90;;;;;;4936895;29;20457;-68
2022/02/08 06:59:05;;;;;;;3.63;1.70;;;4.70;99.90;;;;;;4936090;29;21003;-68
2022/02/08 07:01:33;;;;;;;4.97;1.80;;;4.70;99.90;;;;;;4936105;29;20548;-68
2022/02/08 07:04:00;;;;;;;5.20;2.10;;;4.70;99.90;;;;;;4936403;29;20515;-69
2022/02/08 07:06:27;;;;;;;8.30;2.37;;;4.80;99.90;;;;;;4936115;29;20464;-69
2022/02/08 07:08:54;;;;;;;9.43;2.53;;;4.90;99.90;;;;;;4936114;29;20951;-68
2022/02/08 07:11:20;;;;;;;12.43;2.30;;;4.90;99.90;;;;;;4936096;29;20635;-68
2022/02/08 07:13:49;;;;;;;6.20;2.20;;;5.00;99.90;;;;;;4936334;29;20489;-68
2022/02/08 07:16:17;;;;;;;6.60;2.13;;;5.10;99.90;;;;;;4936256;29;20466;-68
2022/02/08 07:18:43;;;;;;;10.00;2.43;;;5.00;99.90;;;;;;4936459;29;20462;-67
2022/02/08 07:21:11;;;;;;;10.27;2.50;;;5.10;99.90;;;;;;4936165;29;20473;-68
2022/02/08 07:23:38;;;;;;;9.83;2.20;;;5.10;99.90;;;;;;4936368;29;20456;-69
2022/02/08 07:26:05;;;;;;;5.40;2.37;;;5.20;99.90;;;;;;4936401;29;20460;-68
2022/02/08 07:28:37;;;;;;;6.60;2.20;;;5.20;99.90;;;;;;4936069;29;20457;-67
2022/02/08 07:31:12;;;;;;;9.90;2.80;;;5.10;99.90;;;;;;4936248;29;20508;-68
2022/02/08 07:33:44;;;;;;;7.60;2.40;;;5.00;99.90;;;;;;4942644;29;20455;-69
2022/02/08 07:36:19;;;;;;;4.90;2.40;;;4.90;99.90;;;;;;4948412;29;20444;-68
2022/02/08 07:38:46;;;;;;;5.43;1.83;;;5.00;99.90;;;;;;4943232;29;20476;-68
2022/02/08 07:43:57;;;;;;;5.17;1.80;;;4.90;99.90;;;;;;4939830;29;20420;-68
2022/02/08 07:46:25;;;;;;;6.23;2.30;;;5.00;99.90;;;;;;4939700;29;20467;-67
2022/02/08 07:48:52;;;;;;;10.23;2.90;;;5.10;99.90;;;;;;4939524;29;20456;-68
2022/02/08 07:51:22;;;;;;;11.60;2.47;;;5.10;99.90;;;;;;4939257;29;20489;-69
2022/02/08 07:53:48;;;;;;;7.53;2.30;;;5.20;99.90;;;;;;4939415;29;20551;-69
2022/02/08 07:56:16;;;;;;;7.83;2.60;;;5.30;99.90;;;;;;4939069;29;20869;-68
2022/02/08 07:58:43;;;;;;;6.63;2.50;;;5.20;99.90;;;;;;4939321;29;20508;-67
2022/02/08 08:01:10;;;;;;;11.53;2.93;;;5.30;99.90;;;;;;4939182;29;20494;-69
2022/02/08 08:03:42;;;;;;;4.87;2.53;;;5.30;99.90;;;;;;4939462;29;20467;-68
2022/02/08 08:06:10;;;;;;;6.10;1.97;;;5.40;99.90;;;;;;4940228;29;20454;-69
2022/02/08 08:08:37;;;;;;;5.70;2.37;;;5.60;99.90;;;;;;4940240;29;20869;-68
2022/02/08 08:11:08;;;;;;;5.33;2.50;;;5.70;99.90;;;;;;4941434;29;20492;-68
2022/02/08 08:13:40;;;;;;;7.53;2.70;;;5.70;99.90;;;;;;4941454;29;20460;-68
2022/02/08 08:16:16;;;;;;;5.93;2.23;;;5.80;99.90;;;;;;4943079;29;20452;-69
2022/02/08 08:18:58;;;;;;;8.77;3.00;;;5.90;99.90;;;;;;4942866;29;20445;-69
2022/02/08 08:21:25;;;;;;;10.90;3.17;;;5.90;99.90;;;;;;4946312;29;20479;-68
2022/02/08 08:23:51;;;;;;;8.60;2.77;;;5.90;99.90;;;;;;4950289;29;20468;-69
2022/02/08 08:26:18;;;;;;;10.13;3.07;;;6.00;99.90;;;;;;4942750;29;20461;-69
2022/02/08 08:28:45;;;;;;;11.60;2.20;;;6.10;99.90;;;;;;4942282;29;20461;-69
2022/02/08 08:31:12;;;;;;;5.13;2.30;;;6.10;99.90;;;;;;4942032;29;20491;-69
2022/02/08 08:33:38;;;;;;;6.73;2.20;;;6.10;99.90;;;;;;4940911;29;20465;-70
2022/02/08 08:36:08;;;;;;;3.77;1.90;;;6.10;99.90;;;;;;4940344;29;20458;-68
2022/02/08 08:38:35;;;;;;;7.30;2.43;;;6.10;99.90;;;;;;4940495;29;20808;-68
2022/02/08 08:41:08;;;;;;;5.80;2.63;;;6.10;99.90;;;;;;4939413;29;20484;-69
2022/02/08 08:49:26;;;;;;;5.63;2.43;;;9.40;99.90;;;;;;4939065;29;20421;-69
2022/02/08 08:51:57;;;;;;;5.33;3.17;;;11.20;99.90;;;;;;4938743;29;20489;-69
2022/02/08 08:54:24;;;;;;;8.57;2.50;;;12.00;99.90;;;;;;4938571;29;20513;-69
2022/02/08 08:56:53;;;;;;;6.60;2.33;;;12.60;99.90;;;;;;4938755;29;20461;-69
2022/02/08 08:59:21;;;;;;;8.70;2.20;;;13.40;97.90;;;;;;4938832;29;20461;-70
2022/02/08 09:01:49;;;;;;;6.03;2.13;;;13.20;96.20;;;;;;4938582;29;20481;-69
2022/02/08 09:04:18;;;;;;;5.00;2.00;;;12.60;95.50;;;;;;4938766;29;20496;-69
2022/02/08 09:06:47;;;;;;;4.30;2.17;;;11.90;96.20;;;;;;4939221;29;20868;-68
2022/02/08 09:09:18;;;;;;;5.57;2.20;;;11.30;97.80;;;;;;4941559;29;20453;-69
2022/02/08 09:11:56;;;;;;;5.33;2.37;;;10.70;98.90;;;;;;4948174;29;20864;-68
2022/02/08 09:14:37;;;;;;;5.77;2.00;;;10.50;99.90;;;;;;4946236;29;20449;-68
2022/02/08 09:17:28;;;;;;;6.03;2.47;;;10.10;99.90;;;;;;4939160;29;20445;-69
2022/02/08 09:20:14;;;;;;;5.70;1.97;;;10.50;99.90;;;;;;4938749;29;20555;-69
2022/02/08 09:23:14;;;;;;;5.50;2.20;;;11.80;99.90;;;;;;4940543;29;20437;-68
2022/02/08 09:25:55;;;;;;;8.33;2.23;;;13.10;96.60;;;;;;4939420;29;20460;-69
2022/02/08 09:28:28;;;;;;;9.07;2.50;;;14.40;95.20;;;;;;4938557;29;20842;-69
2022/02/08 09:30:59;;;;;;;5.23;2.43;;;14.80;92.70;;;;;;4937994;29;20489;-69
2022/02/08 09:33:26;;;;;;;6.30;3.00;;;16.00;91.30;;;;;;4938972;29;20445;-69
2022/02/08 09:35:53;;;;;;;5.27;2.27;;;16.80;85.60;;;;;;4939011;29;20460;-69
2022/02/08 09:38:20;;;;;;;5.93;2.10;;;17.10;81.90;;;;;;4941163;29;20457;-70
2022/02/08 09:40:51;;;;;;;7.50;2.33;;;17.70;77.60;;;;;;4944524;29;20504;-68
2022/02/08 09:43:19;;;;;;;5.03;2.77;;;16.80;76.50;;;;;;4945493;29;20441;-68
2022/02/08 09:45:47;;;;;;;5.27;2.10;;;17.10;80.30;;;;;;4945307;29;20492;-69
2022/02/08 09:48:22;;;;;;;3.40;1.80;;;17.10;76.80;;;;;;4943818;29;20447;-69
2022/02/08 09:50:50;;;;;;;6.00;1.97;;;17.00;75.90;;;;;;4941165;29;20476;-69
2022/02/08 09:53:30;;;;;;;6.13;2.40;;;16.30;77.30;;;;;;4943646;29;20465;-70
2022/02/08 09:55:58;;;;;;;5.47;2.33;;;15.10;79.60;;;;;;4942537;29;20473;-70
2022/02/08 09:58:25;;;;;;;5.53;2.60;;;15.60;83.20;;;;;;4941089;29;20461;-69
2022/02/08 10:01:04;;;;;;;5.60;2.80;;;16.20;80.20;;;;;;4942063;29;20492;-68
2022/02/08 10:03:31;;;;;;;4.47;2.10;;;16.10;80.70;;;;;;4940739;29;20455;-68
2022/02/08 10:05:57;;;;;;;5.07;2.33;;;17.00;79.20;;;;;;4941262;29;20475;-69
2022/02/08 10:08:25;;;;;;;8.83;2.77;;;17.70;78.20;;;;;;4941253;29;20460;-69
2022/02/08 10:10:52;;;;;;;3.00;1.87;;;18.10;75.10;;;;;;4940026;29;20483;-69
2022/02/08 10:13:42;;;;;;;6.50;2.70;;;18.80;74.40;;;;;;4940023;29;20467;-69
2022/02/08 10:19:36;;;;;;;7.10;3.07;;;16.90;76.30;;;;;;4939415;29;20472;-68
2022/02/08 10:22:11;;;;;;;9.77;2.37;;;15.30;79.30;;;;;;4940340;29;20539;-68
2022/02/08 10:24:47;;;;;;;9.67;2.60;;;14.50;84.50;;;;;;4938005;29;20445;-69
2022/02/08 10:27:25;;;;;;;8.90;2.67;;;13.80;85.90;;;;;;4936866;29;20441;-70
2022/02/08 10:38:15;;;;;;;4.77;2.20;;;12.90;93.50;;;;;;4938974;29;20424;-69
2022/02/08 10:40:42;;;;;;;4.93;2.80;;;13.60;91.50;;;;;;4939585;29;20476;-69
2022/02/08 10:43:15;;;;;;;16.00;3.17;;;14.50;90.90;;;;;;4938490;29;20501;-69
2022/02/08 10:45:44;;;;;;;6.93;2.63;;;15.00;89.10;;;;;;4937283;29;20448;-69
2022/02/08 10:48:14;;;;;;;13.20;3.27;;;14.40;87.10;;;;;;4936445;29;20979;-70
2022/02/08 10:50:47;;;;;;;4.57;2.20;;;15.40;87.40;;;;;;4937741;29;20480;-69
2022/02/08 10:53:16;;;;;;;4.27;1.87;;;16.30;85.80;;;;;;4936782;29;20465;-69
2022/02/08 10:55:49;;;;;;;7.00;2.43;;;17.00;81.90;;;;;;4937073;29;20457;-69
2022/02/08 10:58:23;;;;;;;3.40;2.20;;;17.50;82.40;;;;;;4942821;29;20540;-69
2022/02/08 11:00:59;;;;;;;6.43;2.57;;;17.30;81.60;;;;;;4940111;29;20487;-69
2022/02/08 11:03:33;;;;;;;8.27;2.53;;;16.60;83.20;;;;;;4937526;29;20444;-69
2022/02/08 11:06:15;;;;;;;9.03;2.60;;;16.00;84.80;;;;;;4937677;29;20444;-70
2022/02/08 11:08:55;;;;;;;8.40;3.13;;;15.00;87.40;;;;;;4940178;29;20921;-71
2022/02/08 11:14:28;;;;;;;8.57;2.60;;;14.30;92.30;;;;;;4947162;29;20415;-70
2022/02/08 11:20:04;;;;;;;4.40;2.00;;;13.70;94.10;;;;;;4940888;29;20907;-69
2022/02/08 11:22:43;;;;;;;6.57;2.00;;;13.60;94.90;;;;;;4940258;29;20476;-68
2022/02/08 11:25:20;;;;;;;8.13;2.37;;;13.70;96.10;;;;;;4940134;29;20868;-70
2022/02/08 11:27:51;;;;;;;4.97;1.90;;;13.30;96.90;;;;;;4940046;29;20479;-69
2022/02/08 11:30:28;;;;;;;4.67;2.50;;;13.20;97.80;;;;;;4940554;29;20928;-69
2022/02/08 11:33:11;;;;;;;3.87;2.30;;;13.30;98.50;;;;;;4941041;29;20967;-68
2022/02/08 11:44:46;;;;;;;3.10;1.40;;;12.80;99.90;;;;;;4900689;29;20984;-69
2022/02/08 11:47:27;;;;;;;4.23;1.50;;;12.60;99.90;;;;;;4900737;29;20871;-68
2022/02/08 11:52:58;;;;;;;5.30;1.67;;;12.80;99.90;;;;;;4941263;29;20559;-68
2022/02/08 11:55:45;;;;;;;4.13;2.20;;;12.80;99.90;;;;;;4945194;29;20460;-68
2022/02/08 11:58:31;;;;;;;5.67;1.63;;;12.80;99.90;;;;;;4940809;29;20952;-68
2022/02/08 12:01:04;;;;;;;4.07;1.50;;;12.80;99.90;;;;;;4940779;29;20494;-66
2022/02/08 12:09:11;;;;;;;2.83;1.20;;;13.10;99.90;;;;;;4937045;29;20455;-66
2022/02/08 12:11:59;;;;;;;6.33;1.43;;;13.10;99.90;;;;;;4942724;29;20508;-69
2022/02/08 12:34:02;;;;;;;3.20;1.83;;;13.30;99.90;;;;;;4900460;29;20462;-68
2022/02/08 12:36:45;;;;;;;6.70;1.40;;;13.50;99.90;;;;;;4935106;29;20453;-67
2022/02/08 12:39:45;;;;;;;1.70;1.30;;;13.60;99.90;;;;;;4944001;29;20505;-66
2022/02/08 12:51:14;;;;;;;2.40;1.30;;;13.50;99.90;;;;;;4942889;29;20436;-67
2022/02/08 12:53:48;;;;;;;3.07;1.00;;;13.40;99.90;;;;;;4948238;29;20561;-66
2022/02/08 12:56:30;;;;;;;1.80;1.60;;;13.20;99.90;;;;;;4955582;29;20445;-67
2022/02/08 12:59:11;;;;;;;1.80;1.20;;;13.10;99.90;;;;;;4958870;29;20497;-67
2022/02/08 13:04:41;;;;;;;5.57;1.60;;;12.80;99.90;;;;;;4941748;29;20469;-66
2022/02/08 14:03:38;;;;;;;4.10;1.70;;;11.40;99.90;;;;;;4943393;29;20435;-66
2022/02/08 14:06:21;;;;;;;8.47;2.03;;;11.30;99.90;;;;;;4943330;29;20499;-68
2022/02/08 14:11:58;;;;;;;6.17;3.73;;;11.40;99.90;;;;;;4925729;29;20833;-66
2022/02/08 14:14:40;;;;;;;5.93;2.00;;;11.50;99.90;;;;;;4942026;29;20539;-67
2022/02/08 14:23:10;;;;;;;6.10;2.30;;;11.40;99.90;;;;;;4934909;29;20448;-66
2022/02/08 14:25:51;;;;;;;2.47;2.27;;;11.40;99.90;;;;;;4941346;29;20449;-67
2022/02/08 14:31:19;;;;;;;3.17;1.60;;;11.40;99.90;;;;;;4940751;29;20456;-65
2022/02/08 14:34:07;;;;;;;3.67;1.63;;;11.40;99.90;;;;;;4942744;29;20468;-66
2022/02/08 14:36:53;;;;;;;4.43;2.00;;;11.40;99.90;;;;;;4941999;29;20470;-67
2022/02/08 15:07:36;;;;;;;3.27;1.30;;;11.00;99.90;;;;;;4953120;29;20424;-67
2022/02/08 15:10:02;;;;;;;4.40;1.63;;;10.90;99.90;;;;;;4944714;29;20456;-67
2022/02/08 15:12:33;;;;;;;6.70;1.60;;;10.90;99.90;;;;;;4942793;29;20480;-66
2022/02/08 15:15:07;;;;;;;4.93;1.30;;;10.90;99.90;;;;;;4943504;29;20444;-66
2022/02/08 15:17:33;;;;;;;2.80;1.67;;;10.90;99.90;;;;;;4943773;29;20532;-65
2022/02/08 15:20:03;;;;;;;2.87;1.30;;;11.00;99.90;;;;;;4941805;29;20456;-66
2022/02/08 15:22:30;;;;;;;2.40;1.40;;;11.00;99.90;;;;;;4941509;29;20984;-66
2022/02/08 15:24:58;;;;;;;2.10;1.30;;;10.90;99.90;;;;;;4941706;29;20805;-66
2022/02/08 15:27:28;;;;;;;3.83;1.50;;;10.80;99.90;;;;;;4942075;29;20456;-67
2022/02/08 15:29:56;;;;;;;7.03;2.70;;;10.80;99.90;;;;;;4942630;29;20460;-65
2022/02/08 15:32:23;;;;;;;3.20;2.00;;;10.80;99.90;;;;;;4946930;29;20488;-66
2022/02/08 15:34:50;;;;;;;2.00;1.50;;;10.70;99.90;;;;;;4946879;29;20543;-66
2022/02/08 15:37:17;;;;;;;2.80;1.70;;;10.70;99.90;;;;;;4946196;29;20456;-66
2022/02/08 15:39:44;;;;;;;3.77;1.17;;;10.60;99.90;;;;;;4945730;29;20951;-67
2022/02/08 15:42:11;;;;;;;2.77;1.50;;;10.60;99.90;;;;;;4942127;29;20469;-66
2022/02/08 15:44:44;;;;;;;2.20;1.33;;;10.50;99.90;;;;;;4942747;29;20821;-67
2022/02/08 15:47:12;;;;;;;1.37;1.00;;;10.60;99.90;;;;;;4943441;29;20459;-66
2022/02/08 15:49:44;;;;;;;3.03;1.63;;;10.60;99.90;;;;;;4944093;29;20453;-66
2022/02/08 15:52:27;;;;;;;4.13;1.23;;;10.50;99.90;;;;;;4942014;29;21035;-66
2022/02/08 15:54:56;;;;;;;3.30;1.80;;;10.50;99.90;;;;;;4942082;29;20459;-67
2022/02/08 16:00:41;;;;;;;1.97;1.53;;;10.50;99.90;;;;;;4917834;29;20543;-66
2022/02/08 16:06:31;;;;;;;5.07;1.10;;;10.20;99.90;;;;;;4943870;29;20420;-67
2022/02/08 16:08:54;;;;;;;4.37;1.47;;;10.20;99.90;;;;;;4943236;29;20470;-67
2022/02/08 16:11:42;;;;;;;3.03;1.43;;;10.30;99.90;;;;;;4944771;29;20483;-67
2022/02/08 16:14:15;;;;;;;4.03;1.80;;;10.20;99.90;;;;;;4950541;29;20461;-66
2022/02/08 16:16:55;;;;;;;1.97;1.87;;;10.00;99.90;;;;;;4952187;29;20445;-67
2022/02/08 16:19:31;;;;;;;4.00;1.17;;;10.00;99.90;;;;;;4951755;29;20452;-67
2022/02/08 16:22:24;;;;;;;3.17;0.90;;;9.90;99.90;;;;;;4952026;29;20531;-67
2022/02/08 16:24:56;;;;;;;2.47;1.03;;;9.80;99.90;;;;;;4950564;29;20468;-67
2022/02/08 16:27:36;;;;;;;2.30;1.67;;;9.70;99.90;;;;;;4949474;29;20473;-67
2022/02/08 16:33:41;;;;;;;1.90;1.23;;;9.60;99.90;;;;;;5111306;27;20533;-67
2022/02/08 16:55:44;;;;;;;4.30;1.67;;;9.50;99.90;;;;;;5098368;28;20456;-67
2022/02/08 16:58:23;;;;;;;2.80;1.43;;;9.50;99.90;;;;;;5097067;28;20536;-68
2022/02/08 17:00:54;;;;;;;2.67;2.27;;;9.50;99.90;;;;;;5096351;28;21055;-68
2022/02/08 17:03:25;;;;;;;3.83;3.00;;;9.50;99.90;;;;;;5097176;28;20445;-68
2022/02/08 17:05:54;;;;;;;11.33;5.63;;;9.60;99.90;;;;;;5099011;28;20460;-68
2022/02/08 17:08:22;;;;;;;6.23;4.13;;;9.60;99.90;;;;;;5100390;28;20434;-68
2022/02/08 17:10:52;;;;;;;9.50;7.97;;;9.60;99.90;;;;;;5102659;28;20497;-67
2022/02/08 17:13:35;;;;;;;10.37;5.73;;;9.60;99.90;;;;;;5101967;28;20452;-67
2022/02/08 17:16:11;;;;;;;5.40;2.60;;;9.50;99.90;;;;;;5101638;28;20430;-69
2022/02/08 17:46:13;;;;;;;6.40;3.47;;;9.50;99.90;;;;;;5055098;28;20445;-66
2022/02/08 17:48:40;;;;;;;18.87;3.27;;;9.50;99.90;;;;;;5082862;28;20438;-66
2022/02/08 17:51:07;;;;;;;3.87;2.40;;;9.50;99.90;;;;;;5082319;28;20529;-66
2022/02/08 17:53:35;;;;;;;2.23;1.90;;;9.50;99.90;;;;;;5084529;28;20446;-66
2022/02/08 17:56:03;;;;;;;6.13;3.00;;;9.50;99.90;;;;;;5097454;28;20438;-66
2022/02/08 17:58:30;;;;;;;6.83;4.83;;;9.70;99.90;;;;;;5084835;28;20457;-67
2022/02/08 18:00:57;;;;;;;4.73;4.20;;;9.90;99.90;;;;;;5083226;28;20466;-67
2022/02/08 18:03:24;;;;;;;8.33;5.10;;;10.00;99.90;;;;;;5081844;28;20485;-66
2022/02/08 18:05:51;;;;;;;10.93;9.27;;;10.00;99.90;;;;;;5081648;28;20457;-67
2022/02/08 18:08:20;;;;;;;12.53;8.10;;;10.00;99.90;;;;;;5081495;28;20471;-66
2022/02/08 18:10:54;;;;;;;8.57;4.70;;;10.00;99.90;;;;;;5080700;28;20474;-66
2022/02/08 18:13:21;;;;;;;7.57;4.40;;;10.00;99.90;;;;;;5081598;28;20441;-66
2022/02/08 18:15:48;;;;;;;6.63;4.00;;;9.90;99.90;;;;;;5080681;28;20446;-67
2022/02/08 18:18:27;;;;;;;9.03;3.20;;;9.90;99.90;;;;;;5086547;28;20837;-66
2022/02/08 18:20:56;;;;;;;6.50;3.60;;;9.90;99.90;;;;;;5092599;28;20550;-67
2022/02/08 18:57:09;;;;;;;8.50;3.43;;;9.50;99.90;;;;;;5064097;28;20441;-67
2022/02/08 19:08:08;;;;;;;4.80;2.53;;;9.40;99.90;;;;;;5055962;28;20496;-68
2022/02/08 19:11:27;;;;;;;6.23;2.10;;;9.30;99.90;;;;;;5086696;28;20465;-66
2022/02/08 19:16:35;;;;;;;4.23;2.57;;;9.20;99.90;;;;;;5079797;28;20453;-66
2022/02/08 19:19:17;;;;;;;4.80;3.40;;;9.20;99.90;;;;;;5078802;28;20435;-67
2022/02/08 19:21:45;;;;;;;7.93;3.40;;;9.20;99.90;;;;;;5078493;28;20462;-66
2022/02/08 19:24:18;;;;;;;4.37;2.90;;;9.20;99.90;;;;;;5078861;28;20496;-66
2022/02/08 19:26:46;;;;;;;9.50;4.27;;;9.20;99.90;;;;;;5078850;28;20796;-67
2022/02/08 19:29:14;;;;;;;7.63;4.03;;;9.20;99.90;;;;;;5079736;28;20454;-67
2022/02/08 19:31:43;;;;;;;11.30;3.40;;;9.20;99.90;;;;;;5079145;28;20482;-66
2022/02/08 19:34:09;;;;;;;5.43;3.70;;;9.20;99.90;;;;;;5079078;28;20453;-66
2022/02/08 19:36:36;;;;;;;10.77;3.73;;;9.10;99.90;;;;;;5078609;28;20439;-66
2022/02/08 19:39:03;;;;;;;6.17;3.90;;;9.10;99.90;;;;;;5079279;28;20450;-66
2022/02/08 19:41:31;;;;;;;10.50;4.13;;;9.00;99.90;;;;;;5078750;28;20482;-66
2022/02/08 19:43:58;;;;;;;5.53;3.90;;;9.00;99.90;;;;;;5078569;28;20803;-66
2022/02/08 19:46:25;;;;;;;10.50;4.10;;;9.00;99.90;;;;;;5080320;28;20478;-67
2022/02/08 19:48:54;;;;;;;9.53;5.03;;;8.90;99.90;;;;;;5079006;28;20466;-67
2022/02/08 19:51:21;;;;;;;13.03;4.63;;;8.90;99.90;;;;;;5088275;28;20558;-68
2022/02/08 19:53:51;;;;;;;9.73;4.30;;;8.90;99.90;;;;;;5087805;28;20457;-66
2022/02/08 19:56:27;;;;;;;11.10;5.07;;;8.90;99.90;;;;;;5080604;28;20551;-65
2022/02/08 19:58:56;;;;;;;12.70;5.10;;;8.90;99.90;;;;;;5080006;28;20449;-66
2022/02/08 20:01:27;;;;;;;6.10;3.70;;;8.90;99.90;;;;;;5079287;28;20495;-65
2022/02/08 20:03:59;;;;;;;7.97;4.20;;;8.90;99.90;;;;;;5080353;28;20840;-66
2022/02/08 20:06:27;;;;;;;11.70;4.10;;;8.90;99.90;;;;;;5079156;28;20526;-66
2022/02/08 20:08:55;;;;;;;11.20;4.53;;;8.80;99.90;;;;;;5079309;28;20446;-65
2022/02/08 20:11:22;;;;;;;7.43;4.13;;;8.80;99.90;;;;;;5079101;28;20485;-65
2022/02/08 20:13:52;;;;;;;11.77;4.80;;;8.80;99.90;;;;;;5077569;28;20968;-66
2022/02/08 20:16:20;;;;;;;12.60;4.77;;;8.70;99.90;;;;;;5077948;28;20446;-66
2022/02/08 20:18:50;;;;;;;6.57;4.83;;;8.70;99.90;;;;;;5077053;28;20461;-66
2022/02/08 20:21:19;;;;;;;10.53;4.43;;;8.70;99.90;;;;;;5078097;28;20468;-66
2022/02/08 20:23:46;;;;;;;7.67;4.47;;;8.60;99.90;;;;;;5081027;28;20461;-66
2022/02/08 20:26:13;;;;;;;8.47;4.40;;;8.60;99.90;;;;;;5096673;28;20474;-66
2022/02/08 20:28:50;;;;;;;6.40;4.93;;;8.60;99.90;;;;;;5078724;28;20789;-66
2022/02/08 20:31:17;;;;;;;11.30;4.70;;;8.60;99.90;;;;;;5078530;28;20481;-67
2022/02/08 20:33:45;;;;;;;6.33;4.30;;;8.60;99.90;;;;;;5077434;28;20485;-66
2022/02/08 20:36:12;;;;;;;7.43;4.70;;;8.50;99.90;;;;;;5078111;28;20795;-67
2022/02/08 20:38:40;;;;;;;8.40;4.80;;;8.50;99.90;;;;;;5078218;28;20478;-67
2022/02/08 20:41:07;;;;;;;12.37;5.17;;;8.50;99.90;;;;;;5077061;28;20485;-67
2022/02/08 20:43:35;;;;;;;9.07;4.97;;;8.50;99.90;;;;;;5077794;28;20455;-66
2022/02/08 20:46:04;;;;;;;6.63;4.80;;;8.50;99.90;;;;;;5079006;28;20457;-67
2022/02/08 20:48:31;;;;;;;12.57;5.23;;;8.50;99.90;;;;;;5079117;28;20446;-66
2022/02/08 20:51:01;;;;;;;10.40;5.90;;;8.60;99.90;;;;;;5078695;28;20466;-67
2022/02/08 20:53:37;;;;;;;7.30;5.60;;;8.60;99.90;;;;;;5079187;28;20472;-67
2022/02/08 20:56:13;;;;;;;7.43;6.70;;;8.60;99.90;;;;;;5084081;28;20439;-66
2022/02/08 20:59:04;;;;;;;10.17;6.37;;;8.60;99.90;;;;;;5079008;28;20440;-67
2022/02/08 21:01:34;;;;;;;12.60;6.70;;;8.60;99.90;;;;;;5081120;28;20515;-67
2022/02/08 21:04:05;;;;;;;12.77;6.67;;;8.50;99.90;;;;;;5083116;28;20442;-67
2022/02/08 21:06:34;;;;;;;15.80;6.87;;;8.50;99.90;;;;;;5085870;28;20434;-66
2022/02/08 21:09:02;;;;;;;9.83;6.47;;;8.40;99.90;;;;;;5083635;28;20453;-66
2022/02/08 21:11:33;;;;;;;11.37;6.23;;;8.30;99.90;;;;;;5078496;28;20470;-66
2022/02/08 21:14:05;;;;;;;12.13;6.63;;;8.30;99.90;;;;;;5081440;28;20422;-66
2022/02/08 21:16:38;;;;;;;9.07;5.80;;;8.30;99.90;;;;;;5086307;28;20464;-67
2022/02/08 21:19:06;;;;;;;10.27;5.40;;;8.30;99.90;;;;;;5086719;28;20434;-66
2022/02/08 21:21:33;;;;;;;7.50;5.40;;;8.30;99.90;;;;;;5089504;28;20489;-67
2022/02/08 21:24:00;;;;;;;9.60;5.30;;;8.30;99.90;;;;;;5097407;28;20454;-67
2022/02/08 21:26:30;;;;;;;9.33;5.40;;;8.20;99.90;;;;;;5094918;28;20948;-67
2022/02/08 21:29:20;;;;;;;8.97;5.43;;;8.30;99.90;;;;;;5095564;28;20434;-67
2022/02/08 21:48:41;;;;;;;4.57;3.27;;;8.40;99.90;;;;;;5112191;28;20437;-66
2022/02/08 21:53:59;;;;;;;2.37;2.17;;;8.40;99.90;;;;;;5097219;28;20450;-66
2022/02/08 21:56:26;;;;;;;6.13;2.77;;;8.40;99.90;;;;;;5096033;28;20544;-67
2022/02/08 21:58:53;;;;;;;4.23;2.33;;;8.50;99.90;;;;;;5096125;28;20451;-67
2022/02/08 22:01:20;;;;;;;5.27;2.20;;;8.50;99.90;;;;;;5095724;28;20497;-67
2022/02/08 22:03:46;;;;;;;3.00;2.30;;;8.50;99.90;;;;;;5095550;28;20453;-67
2022/02/08 22:06:15;;;;;;;2.80;2.13;;;8.50;99.90;;;;;;5096044;28;20433;-66
2022/02/08 22:08:51;;;;;;;4.40;2.40;;;8.50;99.90;;;;;;5104039;28;20933;-67
2022/02/08 22:17:16;;;;;;;2.67;2.47;;;8.40;99.90;;;;;;5093207;28;20421;-66
2022/02/08 22:22:43;;;;;;;2.80;2.60;;;8.50;99.90;;;;;;5078723;28;20472;-66
2022/02/08 22:25:35;;;;;;;2.90;2.70;;;8.50;99.90;;;;;;5094547;28;20429;-66
2022/02/08 22:28:17;;;;;;;4.30;2.83;;;8.50;99.90;;;;;;5101033;28;20459;-66
2022/02/08 22:30:51;;;;;;;3.00;2.80;;;8.50;99.90;;;;;;5100383;28;20508;-67
2022/02/08 22:33:21;;;;;;;3.30;2.90;;;8.50;99.90;;;;;;5094698;28;20824;-66
2022/02/08 22:35:50;;;;;;;5.80;3.83;;;8.50;99.90;;;;;;5098498;28;20428;-66
2022/02/08 22:38:31;;;;;;;5.93;3.40;;;8.50;99.90;;;;;;5113790;28;20434;-67
2022/02/08 22:41:06;;;;;;;5.50;3.30;;;8.40;99.90;;;;;;5113949;28;20449;-66
2022/02/08 22:43:40;;;;;;;4.30;3.13;;;8.50;99.90;;;;;;5111713;28;20992;-67
2022/02/08 22:46:07;;;;;;;3.40;3.10;;;8.50;99.90;;;;;;5080661;28;20433;-67
2022/02/08 22:48:35;;;;;;;3.80;2.70;;;8.50;99.90;;;;;;5080475;28;20945;-66
2022/02/08 22:51:02;;;;;;;3.20;3.00;;;8.50;99.90;;;;;;5080027;28;20481;-66
2022/02/08 22:53:30;;;;;;;3.17;2.97;;;8.50;99.90;;;;;;5080191;28;20485;-67
2022/02/08 22:55:58;;;;;;;4.10;3.30;;;8.50;99.90;;;;;;5081100;28;20451;-66
2022/02/08 22:58:24;;;;;;;5.77;3.87;;;8.60;99.90;;;;;;5096678;28;20442;-65
